sensor_id;sensor_type;location;lat;lon;timestamp;pressure;altitude;pressure_sealevel;temperature;humidity
20971;BME280;10644;48.834;10.088;2023-02-26T00:01:56;96051.25;;;4.82;57.36
20971;BME280;10644;48.834;10.088;2023-02-26T00:04:37;96071.91;;;4.73;57.35
20971;BME280;10644;48.834;10.088;2023-02-26T00:07:15;96074.34;;;4.76;57.96
20971;BME280;10644;48.834;10.088;2023-02-26T00:09:50;96056.28;;;4.84;57.36
20971;BME280;10644;48.834;10.088;2023-02-26T00:12:19;96055.25;;;4.68;58.25
20971;BME280;10644;48.834;10.088;2023-02-26T00:15:15;96072.25;;;4.86;57.24
20971;BME280;10644;48.834;10.088;2023-02-26T00:17:58;96066.31;;;4.45;57.83
20971;BME280;10644;48.834;10.088;2023-02-26T00:20:42;96067.03;;;4.49;58.19
20971;BME280;10644;48.834;10.088;2023-02-26T00:23:18;96066.13;;;4.30;58.10
20971;BME280;10644;48.834;10.088;2023-02-26T00:25:51;96072.13;;;4.27;58.16
20971;BME280;10644;48.834;10.088;2023-02-26T00:28:17;96071.28;;;4.48;57.61
20971;BME280;10644;48.834;10.088;2023-02-26T00:30:56;96074.97;;;4.20;57.59
20971;BME280;10644;48.834;10.088;2023-02-26T00:33:26;96082.41;;;3.81;57.59
20971;BME280;10644;48.834;10.088;2023-02-26T00:45:38;96093.00;;;4.54;56.25
20971;BME280;10644;48.834;10.088;2023-02-26T00:48:45;96102.19;;;4.36;56.15
20971;BME280;10644;48.834;10.088;2023-02-26T00:54:39;96111.38;;;4.17;56.26
20971;BME280;10644;48.834;10.088;2023-02-26T00:57:10;96092.97;;;3.69;57.72
20971;BME280;10644;48.834;10.088;2023-02-26T00:59:56;96100.88;;;3.83;57.35
20971;BME280;10644;48.834;10.088;2023-02-26T01:02:37;96106.41;;;3.71;57.27
20971;BME280;10644;48.834;10.088;2023-02-26T01:05:08;96105.59;;;3.92;56.88
20971;BME280;10644;48.834;10.088;2023-02-26T01:10:43;96099.22;;;3.61;56.80
20971;BME280;10644;48.834;10.088;2023-02-26T01:13:26;96091.22;;;3.71;57.17
20971;BME280;10644;48.834;10.088;2023-02-26T01:16:11;96098.75;;;3.73;56.63
20971;BME280;10644;48.834;10.088;2023-02-26T01:21:48;96104.41;;;3.79;56.94
20971;BME280;10644;48.834;10.088;2023-02-26T01:24:35;96094.69;;;3.90;56.48
20971;BME280;10644;48.834;10.088;2023-02-26T01:27:14;96100.53;;;3.92;56.79
20971;BME280;10644;48.834;10.088;2023-02-26T01:39:46;96092.84;;;4.17;55.85
20971;BME280;10644;48.834;10.088;2023-02-26T01:42:30;96098.75;;;4.16;55.70
20971;BME280;10644;48.834;10.088;2023-02-26T01:48:37;96086.44;;;4.28;55.10
20971;BME280;10644;48.834;10.088;2023-02-26T01:51:09;96099.34;;;4.22;55.42
20971;BME280;10644;48.834;10.088;2023-02-26T01:53:47;96105.59;;;4.35;56.00
20971;BME280;10644;48.834;10.088;2023-02-26T01:56:16;96099.00;;;4.10;55.46
20971;BME280;10644;48.834;10.088;2023-02-26T01:58:47;96090.50;;;3.89;55.88
20971;BME280;10644;48.834;10.088;2023-02-26T02:01:39;96108.78;;;3.97;56.00
20971;BME280;10644;48.834;10.088;2023-02-26T02:04:29;96102.28;;;3.90;55.88
20971;BME280;10644;48.834;10.088;2023-02-26T02:07:13;96106.91;;;4.02;55.92
20971;BME280;10644;48.834;10.088;2023-02-26T02:16:15;96104.16;;;4.08;55.42
20971;BME280;10644;48.834;10.088;2023-02-26T02:41:12;96122.56;;;4.33;54.18
20971;BME280;10644;48.834;10.088;2023-02-26T02:43:42;96136.38;;;4.26;53.60
20971;BME280;10644;48.834;10.088;2023-02-26T02:49:34;96137.31;;;4.02;53.99
20971;BME280;10644;48.834;10.088;2023-02-26T02:52:16;96132.38;;;3.76;54.25
20971;BME280;10644;48.834;10.088;2023-02-26T02:58:29;96127.34;;;3.75;54.01
20971;BME280;10644;48.834;10.088;2023-02-26T03:00:59;96126.56;;;3.74;54.54
20971;BME280;10644;48.834;10.088;2023-02-26T03:09:53;96136.91;;;4.13;53.90
20971;BME280;10644;48.834;10.088;2023-02-26T03:15:54;96138.69;;;4.11;52.68
20971;BME280;10644;48.834;10.088;2023-02-26T03:34:25;96164.69;;;3.70;53.94
20971;BME280;10644;48.834;10.088;2023-02-26T03:37:16;96162.84;;;3.96;53.83
20971;BME280;10644;48.834;10.088;2023-02-26T03:39:59;96162.75;;;3.99;53.17
20971;BME280;10644;48.834;10.088;2023-02-26T03:45:58;96161.81;;;4.02;52.50
20971;BME280;10644;48.834;10.088;2023-02-26T03:48:27;96181.13;;;4.04;52.23
20971;BME280;10644;48.834;10.088;2023-02-26T03:51:02;96179.94;;;3.91;52.56
20971;BME280;10644;48.834;10.088;2023-02-26T03:54:25;96177.69;;;3.84;52.61
20971;BME280;10644;48.834;10.088;2023-02-26T03:57:12;96180.44;;;3.78;52.44
20971;BME280;10644;48.834;10.088;2023-02-26T04:00:03;96182.13;;;3.77;52.75
20971;BME280;10644;48.834;10.088;2023-02-26T04:09:30;96194.75;;;4.23;52.17
20971;BME280;10644;48.834;10.088;2023-02-26T04:11:56;96191.66;;;4.17;52.36
20971;BME280;10644;48.834;10.088;2023-02-26T04:14:28;96203.63;;;4.35;52.31
20971;BME280;10644;48.834;10.088;2023-02-26T04:16:55;96189.53;;;4.28;51.84
20971;BME280;10644;48.834;10.088;2023-02-26T04:19:48;96201.56;;;4.44;51.87
20971;BME280;10644;48.834;10.088;2023-02-26T04:22:33;96201.38;;;4.49;51.58
20971;BME280;10644;48.834;10.088;2023-02-26T04:25:04;96198.03;;;4.48;51.42
20971;BME280;10644;48.834;10.088;2023-02-26T04:27:46;96196.41;;;4.47;51.90
20971;BME280;10644;48.834;10.088;2023-02-26T04:30:12;96192.25;;;4.45;50.92
20971;BME280;10644;48.834;10.088;2023-02-26T04:32:40;96212.53;;;4.45;51.31
20971;BME280;10644;48.834;10.088;2023-02-26T04:35:21;96201.19;;;4.32;50.99
20971;BME280;10644;48.834;10.088;2023-02-26T04:37:54;96206.63;;;4.23;51.38
20971;BME280;10644;48.834;10.088;2023-02-26T04:40:20;96205.56;;;4.28;51.67
20971;BME280;10644;48.834;10.088;2023-02-26T04:42:48;96208.53;;;4.16;50.74
20971;BME280;10644;48.834;10.088;2023-02-26T04:45:24;96212.34;;;4.05;51.16
20971;BME280;10644;48.834;10.088;2023-02-26T04:47:52;96220.94;;;4.01;51.39
20971;BME280;10644;48.834;10.088;2023-02-26T04:50:20;96213.41;;;3.99;51.59
20971;BME280;10644;48.834;10.088;2023-02-26T04:52:59;96219.84;;;3.85;51.32
20971;BME280;10644;48.834;10.088;2023-02-26T04:55:35;96225.22;;;3.76;52.01
20971;BME280;10644;48.834;10.088;2023-02-26T04:58:07;96240.16;;;3.83;52.08
20971;BME280;10644;48.834;10.088;2023-02-26T05:03:51;96246.28;;;4.01;51.74
20971;BME280;10644;48.834;10.088;2023-02-26T05:06:22;96242.16;;;3.98;51.41
20971;BME280;10644;48.834;10.088;2023-02-26T05:09:00;96242.16;;;3.98;51.96
20971;BME280;10644;48.834;10.088;2023-02-26T05:11:32;96238.63;;;4.02;51.63
20971;BME280;10644;48.834;10.088;2023-02-26T05:14:24;96254.69;;;4.01;51.23
20971;BME280;10644;48.834;10.088;2023-02-26T05:17:00;96251.00;;;3.87;51.69
20971;BME280;10644;48.834;10.088;2023-02-26T05:19:31;96259.94;;;3.97;51.82
20971;BME280;10644;48.834;10.088;2023-02-26T05:22:25;96257.13;;;4.04;51.96
20971;BME280;10644;48.834;10.088;2023-02-26T05:31:04;96249.81;;;3.72;51.93
20971;BME280;10644;48.834;10.088;2023-02-26T05:33:31;96243.94;;;3.72;51.83
20971;BME280;10644;48.834;10.088;2023-02-26T05:36:04;96256.00;;;3.88;52.09
20971;BME280;10644;48.834;10.088;2023-02-26T05:38:51;96255.69;;;3.97;52.16
20971;BME280;10644;48.834;10.088;2023-02-26T05:41:41;96249.19;;;3.90;52.09
20971;BME280;10644;48.834;10.088;2023-02-26T05:47:22;96266.84;;;3.92;52.61
20971;BME280;10644;48.834;10.088;2023-02-26T05:49:49;96256.63;;;3.95;52.27
20971;BME280;10644;48.834;10.088;2023-02-26T05:52:15;96266.25;;;3.85;51.92
20971;BME280;10644;48.834;10.088;2023-02-26T05:55:12;96272.75;;;3.92;52.28
20971;BME280;10644;48.834;10.088;2023-02-26T05:57:50;96274.13;;;3.53;52.07
20971;BME280;10644;48.834;10.088;2023-02-26T06:00:22;96275.41;;;3.40;52.79
20971;BME280;10644;48.834;10.088;2023-02-26T06:03:05;96282.44;;;3.31;52.74
20971;BME280;10644;48.834;10.088;2023-02-26T06:05:54;96281.97;;;3.46;53.37
20971;BME280;10644;48.834;10.088;2023-02-26T06:08:22;96296.00;;;3.54;53.04
20971;BME280;10644;48.834;10.088;2023-02-26T06:10:50;96298.38;;;3.59;52.99
20971;BME280;10644;48.834;10.088;2023-02-26T06:13:18;96287.75;;;3.49;52.71
20971;BME280;10644;48.834;10.088;2023-02-26T06:15:49;96288.63;;;3.22;52.93
20971;BME280;10644;48.834;10.088;2023-02-26T06:18:25;96290.63;;;3.39;53.47
20971;BME280;10644;48.834;10.088;2023-02-26T06:20:51;96296.31;;;3.45;53.02
20971;BME280;10644;48.834;10.088;2023-02-26T06:23:43;96312.69;;;3.35;53.29
20971;BME280;10644;48.834;10.088;2023-02-26T06:26:09;96313.25;;;3.43;52.91
20971;BME280;10644;48.834;10.088;2023-02-26T06:28:40;96314.81;;;2.95;53.97
20971;BME280;10644;48.834;10.088;2023-02-26T06:31:27;96322.59;;;3.15;53.95
20971;BME280;10644;48.834;10.088;2023-02-26T06:34:03;96318.00;;;3.28;53.25
20971;BME280;10644;48.834;10.088;2023-02-26T06:36:55;96328.88;;;3.04;53.85
20971;BME280;10644;48.834;10.088;2023-02-26T06:39:29;96332.75;;;2.88;53.96
20971;BME280;10644;48.834;10.088;2023-02-26T06:44:59;96337.69;;;3.18;54.36
20971;BME280;10644;48.834;10.088;2023-02-26T06:47:52;96345.31;;;3.43;53.49
20971;BME280;10644;48.834;10.088;2023-02-26T06:57:02;96351.97;;;3.45;53.92
20971;BME280;10644;48.834;10.088;2023-02-26T06:59:31;96359.06;;;3.62;53.53
20971;BME280;10644;48.834;10.088;2023-02-26T07:01:58;96353.66;;;3.46;54.09
20971;BME280;10644;48.834;10.088;2023-02-26T07:04:31;96360.25;;;3.50;53.80
20971;BME280;10644;48.834;10.088;2023-02-26T07:10:21;96370.19;;;3.30;54.76
20971;BME280;10644;48.834;10.088;2023-02-26T07:12:51;96374.19;;;3.37;54.73
20971;BME280;10644;48.834;10.088;2023-02-26T07:15:37;96371.94;;;3.28;54.17
20971;BME280;10644;48.834;10.088;2023-02-26T07:18:13;96380.91;;;3.38;54.30
20971;BME280;10644;48.834;10.088;2023-02-26T07:20:42;96383.44;;;3.38;54.97
20971;BME280;10644;48.834;10.088;2023-02-26T07:23:07;96393.94;;;2.99;55.91
20971;BME280;10644;48.834;10.088;2023-02-26T07:25:51;96381.00;;;2.80;56.28
20971;BME280;10644;48.834;10.088;2023-02-26T07:28:23;96403.22;;;2.98;56.45
20971;BME280;10644;48.834;10.088;2023-02-26T07:34:10;96403.34;;;2.94;56.50
20971;BME280;10644;48.834;10.088;2023-02-26T07:36:46;96401.69;;;2.93;56.67
20971;BME280;10644;48.834;10.088;2023-02-26T07:39:18;96409.75;;;2.76;57.81
20971;BME280;10644;48.834;10.088;2023-02-26T07:41:45;96411.50;;;2.74;57.37
20971;BME280;10644;48.834;10.088;2023-02-26T07:44:25;96407.31;;;2.73;57.60
20971;BME280;10644;48.834;10.088;2023-02-26T07:47:00;96409.97;;;2.98;57.14
20971;BME280;10644;48.834;10.088;2023-02-26T07:49:34;96419.47;;;2.61;58.04
20971;BME280;10644;48.834;10.088;2023-02-26T07:52:03;96412.00;;;2.26;58.48
20971;BME280;10644;48.834;10.088;2023-02-26T07:54:35;96429.31;;;2.09;59.83
20971;BME280;10644;48.834;10.088;2023-02-26T07:57:07;96431.06;;;2.05;60.35
20971;BME280;10644;48.834;10.088;2023-02-26T08:02:49;96432.16;;;2.27;59.37
20971;BME280;10644;48.834;10.088;2023-02-26T08:05:24;96428.47;;;2.40;59.15
20971;BME280;10644;48.834;10.088;2023-02-26T08:07:56;96433.78;;;2.60;58.54
20971;BME280;10644;48.834;10.088;2023-02-26T08:10:50;96429.56;;;2.61;58.42
20971;BME280;10644;48.834;10.088;2023-02-26T08:13:34;96425.00;;;2.12;59.25
20971;BME280;10644;48.834;10.088;2023-02-26T08:16:01;96425.84;;;1.79;60.58
20971;BME280;10644;48.834;10.088;2023-02-26T08:18:42;96426.09;;;2.02;60.06
20971;BME280;10644;48.834;10.088;2023-02-26T08:21:12;96438.50;;;2.11;60.24
20971;BME280;10644;48.834;10.088;2023-02-26T08:23:43;96439.41;;;2.09;59.94
20971;BME280;10644;48.834;10.088;2023-02-26T08:26:10;96432.63;;;2.09;59.63
20971;BME280;10644;48.834;10.088;2023-02-26T08:29:06;96441.00;;;2.43;59.05
20971;BME280;10644;48.834;10.088;2023-02-26T08:31:36;96439.50;;;2.36;59.38
20971;BME280;10644;48.834;10.088;2023-02-26T08:34:17;96442.19;;;2.62;58.71
20971;BME280;10644;48.834;10.088;2023-02-26T08:36:49;96440.38;;;2.35;59.07
20971;BME280;10644;48.834;10.088;2023-02-26T08:39:22;96434.94;;;2.50;59.05
20971;BME280;10644;48.834;10.088;2023-02-26T08:41:48;96429.38;;;2.68;58.78
20971;BME280;10644;48.834;10.088;2023-02-26T08:44:34;96438.06;;;2.58;59.21
20971;BME280;10644;48.834;10.088;2023-02-26T08:47:02;96444.78;;;2.59;59.34
20971;BME280;10644;48.834;10.088;2023-02-26T08:49:45;96445.34;;;2.06;59.52
20971;BME280;10644;48.834;10.088;2023-02-26T08:52:10;96468.16;;;2.02;60.19
20971;BME280;10644;48.834;10.088;2023-02-26T08:54:40;96474.84;;;1.69;61.16
20971;BME280;10644;48.834;10.088;2023-02-26T08:57:12;96467.75;;;1.50;61.41
20971;BME280;10644;48.834;10.088;2023-02-26T08:59:55;96467.41;;;1.65;61.59
20971;BME280;10644;48.834;10.088;2023-02-26T09:02:28;96469.22;;;1.93;60.44
20971;BME280;10644;48.834;10.088;2023-02-26T09:04:54;96482.13;;;1.81;60.34
20971;BME280;10644;48.834;10.088;2023-02-26T09:07:25;96482.72;;;1.92;60.61
20971;BME280;10644;48.834;10.088;2023-02-26T09:09:52;96484.31;;;1.96;60.34
20971;BME280;10644;48.834;10.088;2023-02-26T09:12:51;96495.47;;;2.21;60.15
20971;BME280;10644;48.834;10.088;2023-02-26T09:15:19;96498.59;;;1.97;60.25
20971;BME280;10644;48.834;10.088;2023-02-26T09:17:45;96493.25;;;2.08;60.22
20971;BME280;10644;48.834;10.088;2023-02-26T09:20:11;96489.66;;;2.18;60.32
20971;BME280;10644;48.834;10.088;2023-02-26T09:23:05;96511.56;;;2.17;59.96
20971;BME280;10644;48.834;10.088;2023-02-26T09:25:38;96498.47;;;2.02;60.94
20971;BME280;10644;48.834;10.088;2023-02-26T09:28:15;96508.09;;;2.21;60.44
20971;BME280;10644;48.834;10.088;2023-02-26T09:31:03;96510.97;;;2.73;59.48
20971;BME280;10644;48.834;10.088;2023-02-26T09:33:33;96512.66;;;2.73;58.68
20971;BME280;10644;48.834;10.088;2023-02-26T09:36:03;96518.78;;;2.95;58.76
20971;BME280;10644;48.834;10.088;2023-02-26T09:38:29;96513.78;;;2.93;58.41
20971;BME280;10644;48.834;10.088;2023-02-26T09:41:12;96511.75;;;3.06;58.33
20971;BME280;10644;48.834;10.088;2023-02-26T09:47:16;96521.13;;;2.38;59.84
20971;BME280;10644;48.834;10.088;2023-02-26T09:50:15;96526.19;;;2.38;60.12
20971;BME280;10644;48.834;10.088;2023-02-26T09:56:10;96506.78;;;1.70;61.23
20971;BME280;10644;48.834;10.088;2023-02-26T09:58:50;96530.38;;;2.04;61.33
20971;BME280;10644;48.834;10.088;2023-02-26T10:04:52;96532.09;;;2.37;61.34
20971;BME280;10644;48.834;10.088;2023-02-26T10:13:36;96536.06;;;2.47;61.86
20971;BME280;10644;48.834;10.088;2023-02-26T10:16:13;96533.06;;;2.65;60.18
20971;BME280;10644;48.834;10.088;2023-02-26T10:18:54;96544.84;;;2.66;60.93
20971;BME280;10644;48.834;10.088;2023-02-26T10:24:44;96538.84;;;2.70;61.15
20971;BME280;10644;48.834;10.088;2023-02-26T10:30:36;96547.72;;;2.19;61.25
20971;BME280;10644;48.834;10.088;2023-02-26T10:39:35;96545.56;;;2.70;60.85
20971;BME280;10644;48.834;10.088;2023-02-26T10:42:16;96543.31;;;2.93;61.05
20971;BME280;10644;48.834;10.088;2023-02-26T10:51:18;96551.91;;;3.16;60.74
20971;BME280;10644;48.834;10.088;2023-02-26T10:53:47;96550.38;;;3.11;60.65
20971;BME280;10644;48.834;10.088;2023-02-26T10:56:24;96549.59;;;3.09;61.80
20971;BME280;10644;48.834;10.088;2023-02-26T10:58:54;96545.41;;;3.08;62.41
20971;BME280;10644;48.834;10.088;2023-02-26T11:01:24;96548.38;;;2.93;62.30
20971;BME280;10644;48.834;10.088;2023-02-26T11:04:26;96555.69;;;2.70;64.79
20971;BME280;10644;48.834;10.088;2023-02-26T11:07:14;96553.28;;;2.65;64.73
20971;BME280;10644;48.834;10.088;2023-02-26T11:09:50;96553.13;;;2.71;64.93
20971;BME280;10644;48.834;10.088;2023-02-26T11:12:20;96553.59;;;2.87;63.27
20971;BME280;10644;48.834;10.088;2023-02-26T11:14:48;96552.91;;;2.80;62.89
20971;BME280;10644;48.834;10.088;2023-02-26T11:20:30;96553.91;;;3.05;61.46
20971;BME280;10644;48.834;10.088;2023-02-26T11:22:58;96564.25;;;2.66;61.25
20971;BME280;10644;48.834;10.088;2023-02-26T11:25:30;96558.28;;;2.68;61.84
20971;BME280;10644;48.834;10.088;2023-02-26T11:28:03;96573.28;;;2.74;61.09
20971;BME280;10644;48.834;10.088;2023-02-26T11:30:37;96563.25;;;2.71;60.95
20971;BME280;10644;48.834;10.088;2023-02-26T11:33:23;96563.09;;;2.77;61.02
20971;BME280;10644;48.834;10.088;2023-02-26T11:36:02;96551.56;;;2.98;60.42
20971;BME280;10644;48.834;10.088;2023-02-26T11:38:31;96545.13;;;3.47;60.94
20971;BME280;10644;48.834;10.088;2023-02-26T11:40:59;96556.44;;;3.92;59.78
20971;BME280;10644;48.834;10.088;2023-02-26T11:43:35;96553.47;;;3.78;58.67
20971;BME280;10644;48.834;10.088;2023-02-26T11:46:11;96556.69;;;3.56;59.31
20971;BME280;10644;48.834;10.088;2023-02-26T11:48:52;96556.16;;;3.45;59.94
20971;BME280;10644;48.834;10.088;2023-02-26T11:51:24;96544.78;;;3.30;59.37
20971;BME280;10644;48.834;10.088;2023-02-26T11:53:59;96559.06;;;3.33;59.12
20971;BME280;10644;48.834;10.088;2023-02-26T11:56:41;96557.09;;;3.42;59.42
20971;BME280;10644;48.834;10.088;2023-02-26T12:01:45;96558.97;;;3.34;59.15
20971;BME280;10644;48.834;10.088;2023-02-26T12:04:22;96551.50;;;3.31;58.66
20971;BME280;10644;48.834;10.088;2023-02-26T12:06:51;96555.19;;;3.20;58.54
20971;BME280;10644;48.834;10.088;2023-02-26T12:09:18;96554.97;;;3.27;58.22
20971;BME280;10644;48.834;10.088;2023-02-26T12:18:02;96554.56;;;4.25;57.25
20971;BME280;10644;48.834;10.088;2023-02-26T12:26:47;96556.25;;;3.98;55.72
20971;BME280;10644;48.834;10.088;2023-02-26T12:32:20;96547.19;;;3.62;55.41
20971;BME280;10644;48.834;10.088;2023-02-26T12:35:14;96551.50;;;3.31;55.32
20971;BME280;10644;48.834;10.088;2023-02-26T12:38:16;96561.38;;;3.40;55.87
20971;BME280;10644;48.834;10.088;2023-02-26T12:43:48;96553.09;;;3.63;55.05
20971;BME280;10644;48.834;10.088;2023-02-26T13:09:37;96565.63;;;4.22;50.48
20971;BME280;10644;48.834;10.088;2023-02-26T13:20:49;96573.97;;;3.98;51.19
20971;BME280;10644;48.834;10.088;2023-02-26T13:23:39;96561.22;;;4.27;50.93
20971;BME280;10644;48.834;10.088;2023-02-26T13:26:09;96566.50;;;4.21;50.98
20971;BME280;10644;48.834;10.088;2023-02-26T13:33:56;96569.72;;;4.26;49.91
20971;BME280;10644;48.834;10.088;2023-02-26T13:36:32;96586.06;;;4.16;48.52
20971;BME280;10644;48.834;10.088;2023-02-26T13:45:02;96573.50;;;4.13;51.54
20971;BME280;10644;48.834;10.088;2023-02-26T13:59:24;96590.88;;;4.25;51.64
20971;BME280;10644;48.834;10.088;2023-02-26T14:01:55;96578.38;;;4.45;51.98
20971;BME280;10644;48.834;10.088;2023-02-26T14:04:27;96580.88;;;4.47;51.24
20971;BME280;10644;48.834;10.088;2023-02-26T14:10:24;96576.88;;;4.40;50.00
20971;BME280;10644;48.834;10.088;2023-02-26T14:18:51;96594.56;;;4.67;49.89
20971;BME280;10644;48.834;10.088;2023-02-26T14:24:12;96595.44;;;4.14;52.57
20971;BME280;10644;48.834;10.088;2023-02-26T14:26:44;96589.44;;;4.17;54.85
20971;BME280;10644;48.834;10.088;2023-02-26T14:29:19;96601.00;;;3.98;54.99
20971;BME280;10644;48.834;10.088;2023-02-26T14:34:42;96596.69;;;4.29;53.84
20971;BME280;10644;48.834;10.088;2023-02-26T14:37:27;96595.25;;;4.46;52.49
20971;BME280;10644;48.834;10.088;2023-02-26T14:40:12;96620.91;;;4.37;52.06
20971;BME280;10644;48.834;10.088;2023-02-26T14:45:29;96623.44;;;3.82;60.00
20971;BME280;10644;48.834;10.088;2023-02-26T14:47:57;96624.66;;;3.69;61.41
20971;BME280;10644;48.834;10.088;2023-02-26T14:50:39;96619.84;;;3.60;60.81
20971;BME280;10644;48.834;10.088;2023-02-26T15:21:29;96649.13;;;3.98;50.53
20971;BME280;10644;48.834;10.088;2023-02-26T15:23:58;96658.09;;;3.80;50.45
20971;BME280;10644;48.834;10.088;2023-02-26T15:29:02;96656.28;;;3.85;50.27
20971;BME280;10644;48.834;10.088;2023-02-26T15:31:40;96665.22;;;3.66;50.70
20971;BME280;10644;48.834;10.088;2023-02-26T15:34:13;96669.91;;;3.51;50.43
20971;BME280;10644;48.834;10.088;2023-02-26T15:36:44;96666.25;;;3.61;49.95
20971;BME280;10644;48.834;10.088;2023-02-26T15:39:40;96664.88;;;3.49;49.06
20971;BME280;10644;48.834;10.088;2023-02-26T15:42:08;96665.16;;;3.69;49.50
20971;BME280;10644;48.834;10.088;2023-02-26T15:44:34;96666.81;;;3.70;49.31
20971;BME280;10644;48.834;10.088;2023-02-26T15:47:08;96667.41;;;3.49;48.47
20971;BME280;10644;48.834;10.088;2023-02-26T15:49:47;96671.06;;;3.68;48.42
20971;BME280;10644;48.834;10.088;2023-02-26T15:52:25;96678.66;;;3.68;48.39
20971;BME280;10644;48.834;10.088;2023-02-26T15:54:54;96674.94;;;3.81;47.77
20971;BME280;10644;48.834;10.088;2023-02-26T15:57:29;96671.94;;;3.98;47.59
20971;BME280;10644;48.834;10.088;2023-02-26T16:00:15;96684.94;;;4.15;48.24
20971;BME280;10644;48.834;10.088;2023-02-26T16:02:48;96677.38;;;4.13;47.90
20971;BME280;10644;48.834;10.088;2023-02-26T16:05:17;96684.13;;;4.14;47.47
20971;BME280;10644;48.834;10.088;2023-02-26T16:08:03;96687.88;;;4.01;47.45
20971;BME280;10644;48.834;10.088;2023-02-26T16:10:38;96687.34;;;3.90;47.50
20971;BME280;10644;48.834;10.088;2023-02-26T16:13:13;96683.88;;;3.93;47.62
20971;BME280;10644;48.834;10.088;2023-02-26T16:15:49;96687.97;;;3.98;47.37
20971;BME280;10644;48.834;10.088;2023-02-26T16:18:21;96703.59;;;3.51;47.83
20971;BME280;10644;48.834;10.088;2023-02-26T16:20:53;96703.03;;;3.42;48.39
20971;BME280;10644;48.834;10.088;2023-02-26T16:23:46;96713.28;;;3.69;47.24
20971;BME280;10644;48.834;10.088;2023-02-26T16:26:20;96717.53;;;3.67;47.63
20971;BME280;10644;48.834;10.088;2023-02-26T16:28:50;96715.53;;;3.78;47.87
20971;BME280;10644;48.834;10.088;2023-02-26T16:31:23;96714.47;;;4.16;47.04
20971;BME280;10644;48.834;10.088;2023-02-26T16:34:21;96736.31;;;3.91;46.89
20971;BME280;10644;48.834;10.088;2023-02-26T16:43:58;96743.50;;;3.43;48.04
20971;BME280;10644;48.834;10.088;2023-02-26T16:46:49;96757.19;;;3.36;48.55
20971;BME280;10644;48.834;10.088;2023-02-26T16:49:24;96764.34;;;3.53;48.52
20971;BME280;10644;48.834;10.088;2023-02-26T16:51:59;96761.75;;;3.54;48.31
20971;BME280;10644;48.834;10.088;2023-02-26T16:54:40;96760.28;;;3.47;48.43
20971;BME280;10644;48.834;10.088;2023-02-26T16:57:17;96768.78;;;3.77;47.69
20971;BME280;10644;48.834;10.088;2023-02-26T16:59:58;96763.66;;;3.78;47.79
20971;BME280;10644;48.834;10.088;2023-02-26T17:02:28;96767.94;;;3.76;47.09
20971;BME280;10644;48.834;10.088;2023-02-26T17:08:26;96785.34;;;3.56;47.39
20971;BME280;10644;48.834;10.088;2023-02-26T17:11:31;96783.50;;;3.61;48.27
20971;BME280;10644;48.834;10.088;2023-02-26T17:14:36;96791.75;;;3.69;48.89
20971;BME280;10644;48.834;10.088;2023-02-26T17:20:32;96801.56;;;3.81;48.01
20971;BME280;10644;48.834;10.088;2023-02-26T17:26:10;96809.00;;;3.55;48.54
20971;BME280;10644;48.834;10.088;2023-02-26T17:28:41;96807.13;;;3.63;48.48
20971;BME280;10644;48.834;10.088;2023-02-26T17:31:08;96814.22;;;3.49;48.98
20971;BME280;10644;48.834;10.088;2023-02-26T17:33:37;96820.19;;;3.80;48.44
20971;BME280;10644;48.834;10.088;2023-02-26T17:36:16;96825.81;;;3.23;49.19
20971;BME280;10644;48.834;10.088;2023-02-26T17:38:47;96829.81;;;2.96;49.98
20971;BME280;10644;48.834;10.088;2023-02-26T17:44:18;96839.78;;;3.02;49.26
20971;BME280;10644;48.834;10.088;2023-02-26T17:49:59;96854.81;;;2.70;48.97
20971;BME280;10644;48.834;10.088;2023-02-26T17:52:24;96852.00;;;2.84;49.38
20971;BME280;10644;48.834;10.088;2023-02-26T17:58:26;96866.13;;;2.53;49.14
20971;BME280;10644;48.834;10.088;2023-02-26T18:01:08;96848.88;;;2.73;49.49
20971;BME280;10644;48.834;10.088;2023-02-26T18:03:41;96857.63;;;2.57;49.35
20971;BME280;10644;48.834;10.088;2023-02-26T18:06:32;96862.69;;;2.57;49.45
20971;BME280;10644;48.834;10.088;2023-02-26T18:12:21;96872.09;;;2.50;49.21
20971;BME280;10644;48.834;10.088;2023-02-26T18:18:10;96880.22;;;2.64;49.51
20971;BME280;10644;48.834;10.088;2023-02-26T18:20:40;96870.97;;;2.65;49.45
20971;BME280;10644;48.834;10.088;2023-02-26T18:26:30;96876.06;;;2.62;49.18
20971;BME280;10644;48.834;10.088;2023-02-26T18:29:05;96875.69;;;2.37;49.52
20971;BME280;10644;48.834;10.088;2023-02-26T18:31:33;96876.00;;;2.22;50.11
20971;BME280;10644;48.834;10.088;2023-02-26T18:44:22;96896.91;;;2.71;49.20
20971;BME280;10644;48.834;10.088;2023-02-26T19:00:14;96886.66;;;1.92;50.60
20971;BME280;10644;48.834;10.088;2023-02-26T19:06:01;96898.47;;;1.90;51.09
20971;BME280;10644;48.834;10.088;2023-02-26T19:08:42;96900.34;;;1.79;51.66
20971;BME280;10644;48.834;10.088;2023-02-26T19:21:22;96900.88;;;1.46;51.99
20971;BME280;10644;48.834;10.088;2023-02-26T19:31:09;96898.69;;;1.78;51.66
20971;BME280;10644;48.834;10.088;2023-02-26T19:34:16;96906.25;;;1.78;51.57
20971;BME280;10644;48.834;10.088;2023-02-26T19:53:13;96932.19;;;1.86;51.96
20971;BME280;10644;48.834;10.088;2023-02-26T20:02:32;96933.91;;;1.86;51.90
20971;BME280;10644;48.834;10.088;2023-02-26T20:11:46;96955.53;;;1.46;53.01
20971;BME280;10644;48.834;10.088;2023-02-26T20:14:41;96963.47;;;1.78;52.44
20971;BME280;10644;48.834;10.088;2023-02-26T20:17:14;96972.69;;;1.80;52.50
20971;BME280;10644;48.834;10.088;2023-02-26T20:23:11;96955.13;;;1.71;52.47
20971;BME280;10644;48.834;10.088;2023-02-26T20:25:47;96960.44;;;1.56;52.80
20971;BME280;10644;48.834;10.088;2023-02-26T20:31:52;96967.81;;;1.68;52.89
20971;BME280;10644;48.834;10.088;2023-02-26T20:34:30;96957.06;;;1.56;52.83
20971;BME280;10644;48.834;10.088;2023-02-26T20:40:17;96998.38;;;1.50;53.63
20971;BME280;10644;48.834;10.088;2023-02-26T20:46:05;96990.06;;;1.42;54.00
20971;BME280;10644;48.834;10.088;2023-02-26T20:51:53;96983.41;;;1.38;54.19
20971;BME280;10644;48.834;10.088;2023-02-26T20:57:40;96989.63;;;1.12;55.00